createdAt,value
2018-11-04T00:00:04.031Z,0.00
2018-11-04T00:01:03.849Z,0.00
2018-11-04T00:02:03.840Z,0.00
2018-11-04T00:03:03.837Z,0.00
2018-11-04T00:04:03.827Z,0.00
2018-11-04T00:05:03.808Z,0.00
2018-11-04T00:06:03.802Z,0.00
2018-11-04T00:07:03.790Z,0.00
2018-11-04T00:08:03.779Z,0.00
2018-11-04T00:09:03.783Z,0.00
2018-11-04T00:10:03.755Z,0.00
2018-11-04T00:11:03.749Z,0.00
2018-11-04T00:12:03.731Z,0.00
2018-11-04T00:13:03.792Z,0.00
2018-11-04T00:14:03.724Z,0.00
2018-11-04T00:15:03.707Z,0.00
2018-11-04T00:16:03.693Z,0.00
2018-11-04T00:17:03.678Z,0.00
2018-11-04T00:18:03.665Z,0.00
2018-11-04T00:19:03.683Z,0.00
2018-11-04T00:20:03.665Z,0.00
2018-11-04T00:21:03.646Z,0.00
2018-11-04T00:22:03.622Z,0.00
2018-11-04T00:23:03.629Z,0.00
2018-11-04T00:24:03.698Z,0.00
2018-11-04T00:25:03.642Z,0.00
2018-11-04T00:26:03.582Z,0.00
2018-11-04T00:27:03.599Z,0.00
2018-11-04T00:28:03.560Z,0.00
2018-11-04T00:29:03.570Z,0.00
2018-11-04T00:30:03.544Z,0.00
2018-11-04T00:31:03.546Z,0.00
2018-11-04T00:32:03.514Z,0.00
2018-11-04T00:33:03.516Z,0.00
2018-11-04T00:34:03.514Z,0.00
2018-11-04T00:35:03.505Z,0.00
2018-11-04T00:36:03.489Z,0.00
2018-11-04T00:37:03.484Z,0.00
2018-11-04T00:38:03.449Z,0.00
2018-11-04T00:39:03.442Z,0.00
2018-11-04T00:40:03.440Z,0.00
2018-11-04T00:41:03.443Z,0.00
2018-11-04T00:42:03.428Z,0.00
2018-11-04T00:43:03.417Z,0.00
2018-11-04T00:44:03.392Z,0.00
2018-11-04T00:45:03.466Z,0.00
2018-11-04T00:46:03.372Z,0.00
2018-11-04T00:47:03.374Z,0.00
2018-11-04T00:48:03.366Z,0.00
2018-11-04T00:49:03.353Z,0.00
2018-11-04T00:50:03.323Z,0.00
2018-11-04T00:51:03.312Z,0.00
2018-11-04T00:52:03.392Z,0.00
2018-11-04T00:53:03.302Z,0.00
2018-11-04T00:54:03.292Z,0.00
2018-11-04T00:55:03.268Z,0.00
2018-11-04T00:56:03.269Z,0.00
2018-11-04T00:57:03.253Z,0.00
2018-11-04T00:58:03.251Z,0.00
2018-11-04T00:59:03.241Z,0.00
2018-11-04T01:00:03.246Z,0.00
2018-11-04T01:01:03.228Z,0.00
2018-11-04T01:02:03.251Z,0.00
2018-11-04T01:03:03.205Z,0.00
2018-11-04T01:04:03.180Z,0.00
2018-11-04T01:05:03.208Z,0.00
2018-11-04T01:06:03.152Z,0.00
2018-11-04T01:07:03.174Z,0.00
2018-11-04T01:08:03.133Z,0.00
2018-11-04T01:09:03.169Z,0.00
2018-11-04T01:10:03.117Z,0.00
2018-11-04T01:11:03.096Z,0.00
2018-11-04T01:12:03.104Z,0.00
2018-11-04T01:13:03.069Z,0.00
2018-11-04T01:14:03.070Z,0.00
2018-11-04T01:15:03.053Z,0.00
2018-11-04T01:16:03.036Z,0.00
2018-11-04T01:17:03.051Z,0.00
2018-11-04T01:18:03.037Z,0.00
2018-11-04T01:19:03.004Z,0.00
2018-11-04T01:20:02.992Z,0.00
2018-11-04T01:21:03.002Z,0.00
2018-11-04T01:22:02.981Z,0.00
2018-11-04T01:23:02.980Z,0.00
2018-11-04T01:24:02.958Z,0.00
2018-11-04T01:25:02.942Z,0.00
2018-11-04T01:26:02.928Z,0.00
2018-11-04T01:27:02.928Z,0.00
2018-11-04T01:28:02.921Z,0.00
2018-11-04T01:29:02.906Z,0.00
2018-11-04T01:30:02.886Z,0.00
2018-11-04T01:31:02.876Z,0.00
2018-11-04T01:32:02.862Z,0.00
2018-11-04T01:33:02.860Z,0.00
2018-11-04T01:34:02.846Z,0.00
2018-11-04T01:35:02.836Z,0.00
2018-11-04T01:36:02.853Z,0.00
2018-11-04T01:37:02.813Z,0.00
2018-11-04T01:38:02.799Z,0.00
2018-11-04T01:39:02.786Z,0.00
2018-11-04T01:40:02.789Z,0.00
2018-11-04T01:41:02.776Z,0.00
2018-11-04T01:42:02.754Z,0.00
2018-11-04T01:43:02.739Z,0.00
2018-11-04T01:44:02.739Z,0.00
2018-11-04T01:45:02.720Z,0.00
2018-11-04T01:46:02.711Z,0.00
2018-11-04T01:47:02.754Z,0.00
2018-11-04T01:48:02.688Z,0.00
2018-11-04T01:49:02.674Z,0.00
2018-11-04T01:50:02.672Z,0.00
2018-11-04T01:51:02.666Z,0.00
2018-11-04T01:52:02.668Z,0.00
2018-11-04T01:53:02.632Z,0.00
2018-11-04T01:54:02.620Z,0.00
2018-11-04T01:55:02.609Z,0.00
2018-11-04T01:56:02.611Z,0.00
2018-11-04T01:57:02.586Z,0.00
2018-11-04T01:58:02.585Z,0.00
2018-11-04T01:59:02.566Z,0.00
2018-11-04T02:00:02.564Z,0.00
2018-11-04T02:01:02.548Z,0.00
2018-11-04T02:02:02.532Z,0.00
2018-11-04T02:03:02.524Z,0.00
2018-11-04T02:04:02.527Z,0.00
2018-11-04T02:05:02.519Z,0.00
2018-11-04T02:06:02.492Z,0.00
2018-11-04T02:07:02.481Z,0.00
2018-11-04T02:08:02.463Z,0.00
2018-11-04T02:09:02.458Z,0.00
2018-11-04T02:10:02.447Z,0.00
2018-11-04T02:11:02.435Z,0.00
2018-11-04T02:12:02.421Z,0.00
2018-11-04T02:13:02.428Z,0.00
2018-11-04T02:14:02.398Z,0.00
2018-11-04T02:15:02.391Z,0.00
2018-11-04T02:16:02.378Z,0.00
2018-11-04T02:17:02.368Z,0.00
2018-11-04T02:18:02.360Z,0.00
2018-11-04T02:19:02.349Z,0.00
2018-11-04T02:20:02.334Z,0.00
2018-11-04T02:21:02.329Z,0.00
2018-11-04T02:22:02.312Z,0.00
2018-11-04T02:23:02.325Z,0.00
2018-11-04T02:24:02.294Z,0.00
2018-11-04T02:25:02.286Z,0.00
2018-11-04T02:26:02.288Z,0.00
2018-11-04T02:27:02.260Z,0.00
2018-11-04T02:28:02.250Z,0.00
2018-11-04T02:29:02.242Z,0.00
2018-11-04T02:30:02.227Z,0.00
2018-11-04T02:31:02.213Z,0.00
2018-11-04T02:32:02.204Z,0.00
2018-11-04T02:33:02.231Z,0.00
2018-11-04T02:34:02.180Z,0.00
2018-11-04T02:35:02.170Z,0.00
2018-11-04T02:36:02.164Z,0.00
2018-11-04T02:37:02.153Z,0.00
2018-11-04T02:38:02.149Z,0.00
2018-11-04T02:39:02.128Z,0.00
2018-11-04T02:40:02.127Z,0.00
2018-11-04T02:41:02.116Z,0.00
2018-11-04T02:42:02.130Z,0.00
2018-11-04T02:43:02.096Z,0.00
2018-11-04T02:44:02.084Z,0.00
2018-11-04T02:45:02.060Z,0.00
2018-11-04T02:46:02.049Z,0.00
2018-11-04T02:47:02.123Z,0.00
2018-11-04T02:48:02.044Z,0.00
2018-11-04T02:49:02.033Z,0.00
2018-11-04T02:50:02.037Z,0.00
2018-11-04T02:51:02.138Z,0.00
2018-11-04T02:52:02.049Z,0.00
2018-11-04T02:53:01.978Z,0.00
2018-11-04T02:54:02.013Z,0.00
2018-11-04T02:55:01.964Z,0.00
2018-11-04T02:56:01.975Z,0.00
2018-11-04T02:57:01.935Z,0.00
2018-11-04T02:58:01.918Z,0.00
2018-11-04T02:59:01.916Z,0.00
2018-11-04T03:00:01.904Z,0.00
2018-11-04T03:01:01.900Z,0.00
2018-11-04T03:02:01.986Z,0.00
2018-11-04T03:03:01.866Z,0.00
2018-11-04T03:04:01.854Z,0.00
2018-11-04T03:05:01.868Z,0.00
2018-11-04T03:06:01.847Z,0.00
2018-11-04T03:07:01.847Z,0.00
2018-11-04T03:08:01.811Z,0.00
2018-11-04T03:09:01.804Z,0.00
2018-11-04T03:10:01.788Z,0.00
2018-11-04T03:11:01.790Z,0.00
2018-11-04T03:12:01.760Z,0.00
2018-11-04T03:13:01.764Z,0.00
2018-11-04T03:14:01.742Z,0.00
2018-11-04T03:15:01.731Z,0.00
2018-11-04T03:16:01.718Z,0.00
2018-11-04T03:17:01.708Z,0.00
2018-11-04T03:18:01.706Z,0.00
2018-11-04T03:19:01.694Z,0.00
2018-11-04T03:20:01.695Z,0.00
2018-11-04T03:21:01.662Z,0.00
2018-11-04T03:22:01.664Z,0.00
2018-11-04T03:23:01.691Z,0.00
2018-11-04T03:24:01.637Z,0.00
2018-11-04T03:25:01.643Z,0.00
2018-11-04T03:26:01.612Z,0.00
2018-11-04T03:27:01.604Z,0.00
2018-11-04T03:28:01.589Z,0.00
2018-11-04T03:29:01.575Z,0.00
2018-11-04T03:30:01.585Z,0.00
2018-11-04T03:31:01.558Z,0.00
2018-11-04T03:32:01.550Z,0.00
2018-11-04T03:33:01.537Z,0.00
2018-11-04T03:34:01.524Z,0.00
2018-11-04T03:35:01.506Z,0.00
2018-11-04T03:36:01.509Z,0.00
2018-11-04T03:37:01.488Z,0.00
2018-11-04T03:38:01.490Z,0.00
2018-11-04T03:39:01.467Z,0.00
2018-11-04T03:40:01.471Z,0.00
2018-11-04T03:41:01.448Z,0.00
2018-11-04T03:42:01.437Z,0.00
2018-11-04T03:43:01.419Z,0.00
2018-11-04T03:44:01.408Z,0.00
2018-11-04T03:45:01.402Z,0.00
2018-11-04T03:46:01.391Z,0.00
2018-11-04T03:47:01.382Z,0.00
2018-11-04T03:48:01.373Z,0.00
2018-11-04T03:49:01.357Z,0.00
2018-11-04T03:50:01.344Z,0.00
2018-11-04T03:51:01.337Z,0.00
2018-11-04T03:52:01.323Z,0.00
2018-11-04T03:53:01.322Z,0.00
2018-11-04T03:54:01.297Z,0.00
2018-11-04T03:55:01.297Z,0.00
2018-11-04T03:56:01.278Z,0.00
2018-11-04T03:57:01.287Z,0.00
2018-11-04T03:58:01.276Z,0.00
2018-11-04T03:59:01.269Z,0.00
2018-11-04T04:00:01.233Z,0.00
2018-11-04T04:01:01.230Z,0.00
2018-11-04T04:02:01.211Z,0.00
2018-11-04T04:03:01.199Z,0.00
2018-11-04T04:04:01.191Z,0.00
2018-11-04T04:05:01.197Z,0.00
2018-11-04T04:06:01.176Z,0.00
2018-11-04T04:07:01.167Z,0.00
2018-11-04T04:08:01.146Z,0.00
2018-11-04T04:09:01.137Z,0.00
2018-11-04T04:10:01.133Z,0.00
2018-11-04T04:11:01.122Z,0.00
2018-11-04T04:12:01.102Z,0.00
2018-11-04T04:13:01.099Z,0.00
2018-11-04T04:14:01.086Z,0.00
2018-11-04T04:15:01.074Z,0.00
2018-11-04T04:16:01.065Z,0.00
2018-11-04T04:17:01.052Z,0.00
2018-11-04T04:18:01.045Z,0.00
2018-11-04T04:19:01.029Z,0.00
2018-11-04T04:20:01.022Z,0.00
2018-11-04T04:21:01.034Z,0.00
2018-11-04T04:22:00.995Z,0.00
2018-11-04T04:23:00.982Z,0.00
2018-11-04T04:24:00.977Z,0.00
2018-11-04T04:25:00.961Z,0.00
2018-11-04T04:26:00.948Z,0.00
2018-11-04T04:27:00.964Z,0.00
2018-11-04T04:28:00.931Z,0.00
2018-11-04T04:29:00.935Z,0.00
2018-11-04T04:30:00.907Z,0.00
2018-11-04T04:31:00.894Z,0.00
2018-11-04T04:32:00.882Z,0.00
2018-11-04T04:33:00.875Z,0.00
2018-11-04T04:34:00.866Z,0.00
2018-11-04T04:35:00.853Z,0.00
2018-11-04T04:36:00.846Z,0.00
2018-11-04T04:37:00.828Z,0.00
2018-11-04T04:38:00.818Z,0.00
2018-11-04T04:39:00.809Z,0.00
2018-11-04T04:40:00.799Z,0.00
2018-11-04T04:41:00.784Z,0.00
2018-11-04T04:42:00.799Z,0.00
2018-11-04T04:43:00.765Z,0.00
2018-11-04T04:44:00.762Z,0.00
2018-11-04T04:45:00.746Z,0.00
2018-11-04T04:46:00.727Z,0.00
2018-11-04T04:47:00.718Z,0.00
2018-11-04T04:48:00.708Z,0.00
2018-11-04T04:49:00.702Z,0.00
2018-11-04T04:50:00.709Z,0.00
2018-11-04T04:51:00.680Z,0.00
2018-11-04T04:52:00.665Z,0.00
2018-11-04T04:53:00.662Z,0.00
2018-11-04T04:54:00.641Z,0.00
2018-11-04T04:55:00.644Z,0.00
2018-11-04T04:56:00.631Z,0.00
2018-11-04T04:57:00.622Z,0.00
2018-11-04T04:58:00.597Z,0.00
2018-11-04T04:59:00.586Z,0.00
2018-11-04T05:00:00.582Z,0.00
2018-11-04T05:01:00.578Z,0.00
2018-11-04T05:02:00.582Z,0.00
2018-11-04T05:03:00.579Z,0.00
2018-11-04T05:04:00.535Z,0.00
2018-11-04T05:05:00.544Z,0.00
2018-11-04T05:06:00.511Z,0.00
2018-11-04T05:07:00.506Z,0.00
2018-11-04T05:08:00.486Z,0.00
2018-11-04T05:09:00.488Z,0.00
2018-11-04T05:10:00.470Z,0.00
2018-11-04T05:11:00.472Z,0.00
2018-11-04T05:12:00.446Z,0.00
2018-11-04T05:13:00.443Z,0.00
2018-11-04T05:14:00.420Z,0.00
2018-11-04T05:15:00.415Z,0.00
2018-11-04T05:16:00.404Z,0.00
2018-11-04T05:17:00.394Z,0.00
2018-11-04T05:18:00.384Z,0.00
2018-11-04T05:19:00.376Z,0.00
2018-11-04T05:20:00.361Z,0.00
2018-11-04T05:21:00.345Z,0.00
2018-11-04T05:22:00.338Z,0.00
2018-11-04T05:23:00.324Z,0.00
2018-11-04T05:24:00.313Z,0.00
2018-11-04T05:25:00.318Z,0.00
2018-11-04T05:26:00.323Z,0.00
2018-11-04T05:27:00.282Z,0.00
2018-11-04T05:28:00.272Z,0.00
2018-11-04T05:29:00.260Z,0.00
2018-11-04T05:30:00.256Z,0.00
2018-11-04T05:31:00.238Z,0.00
2018-11-04T05:32:00.228Z,0.00
2018-11-04T05:33:00.218Z,0.00
2018-11-04T05:34:00.210Z,0.00
2018-11-04T05:35:00.197Z,0.00
2018-11-04T05:36:00.191Z,0.00
2018-11-04T05:37:00.173Z,0.00
2018-11-04T05:38:00.162Z,0.00
2018-11-04T05:39:00.149Z,0.00
2018-11-04T05:40:00.137Z,0.00
2018-11-04T05:41:00.158Z,0.00
2018-11-04T05:42:00.125Z,0.00
2018-11-04T05:43:00.103Z,0.00
2018-11-04T05:44:00.097Z,0.00
2018-11-04T05:45:00.085Z,0.00
2018-11-04T05:46:00.075Z,0.00
2018-11-04T05:47:00.088Z,0.00
2018-11-04T05:48:00.063Z,0.00
2018-11-04T05:49:00.041Z,0.00
2018-11-04T05:50:00.029Z,0.00
2018-11-04T05:51:00.027Z,0.00
2018-11-04T05:52:00.009Z,0.00
2018-11-04T05:53:00.009Z,0.00
2018-11-04T05:53:59.983Z,0.00
2018-11-04T05:54:59.979Z,0.00
2018-11-04T05:55:59.966Z,0.00
2018-11-04T05:56:59.967Z,0.00
2018-11-04T05:57:59.939Z,4.00
2018-11-04T05:58:59.951Z,4.00
2018-11-04T05:59:59.918Z,0.00
2018-11-04T06:00:59.940Z,4.00
2018-11-04T06:01:59.899Z,0.00
2018-11-04T06:02:59.886Z,4.00
2018-11-04T06:03:59.876Z,4.00
2018-11-04T06:04:59.872Z,8.00
2018-11-04T06:05:59.858Z,8.00
2018-11-04T06:06:59.861Z,8.00
2018-11-04T06:07:59.833Z,12.00
2018-11-04T06:08:59.821Z,16.00
2018-11-04T06:09:59.818Z,16.00
2018-11-04T06:10:59.813Z,20.00
2018-11-04T06:11:59.801Z,20.00
2018-11-04T06:12:59.832Z,28.00
2018-11-04T06:13:59.773Z,32.00
2018-11-04T06:14:59.773Z,36.00
2018-11-04T06:15:59.759Z,40.00
2018-11-04T06:16:59.740Z,48.00
2018-11-04T06:17:59.729Z,52.00
2018-11-04T06:18:59.745Z,64.00
2018-11-04T06:19:59.709Z,68.00
2018-11-04T06:20:59.709Z,76.00
2018-11-04T06:21:59.690Z,84.00
2018-11-04T06:22:59.695Z,88.00
2018-11-04T06:23:59.682Z,96.00
2018-11-04T06:24:59.650Z,104.00
2018-11-04T06:25:59.640Z,108.00
2018-11-04T06:26:59.637Z,116.00
2018-11-04T06:27:59.625Z,124.00
2018-11-04T06:28:59.637Z,136.00
2018-11-04T06:29:59.603Z,148.00
2018-11-04T06:30:59.592Z,156.00
2018-11-04T06:31:59.578Z,172.00
2018-11-04T06:32:59.566Z,184.00
2018-11-04T06:33:59.560Z,204.00
2018-11-04T06:34:59.549Z,220.00
2018-11-04T06:35:59.528Z,236.00
2018-11-04T06:36:59.522Z,252.00
2018-11-04T06:37:59.509Z,272.00
2018-11-04T06:38:59.510Z,280.00
2018-11-04T06:39:59.492Z,296.00
2018-11-04T06:40:59.550Z,316.00
2018-11-04T06:41:59.504Z,328.00
2018-11-04T06:42:59.456Z,340.00
2018-11-04T06:43:59.446Z,356.00
2018-11-04T06:44:59.466Z,380.00
2018-11-04T06:45:59.428Z,396.00
2018-11-04T06:46:59.476Z,400.00
2018-11-04T06:47:59.404Z,400.00
2018-11-04T06:48:59.402Z,408.00
2018-11-04T06:49:59.385Z,420.00
2018-11-04T06:50:59.394Z,432.00
2018-11-04T06:51:59.363Z,468.00
2018-11-04T06:52:59.376Z,504.00
2018-11-04T06:53:59.337Z,552.00
2018-11-04T06:54:59.337Z,592.00
2018-11-04T06:55:59.318Z,616.00
2018-11-04T06:56:59.313Z,644.00
2018-11-04T06:57:59.326Z,660.00
2018-11-04T06:58:59.289Z,688.00
2018-11-04T06:59:59.381Z,716.00
2018-11-04T07:00:59.277Z,720.00
2018-11-04T07:01:59.253Z,736.00
2018-11-04T07:02:59.256Z,764.00
2018-11-04T07:03:59.235Z,800.00
2018-11-04T07:04:59.240Z,804.00
2018-11-04T07:05:59.221Z,780.00
2018-11-04T07:06:59.220Z,752.00
2018-11-04T07:07:59.197Z,728.00
2018-11-04T07:08:59.249Z,704.00
2018-11-04T07:09:59.175Z,700.00
2018-11-04T07:10:59.172Z,736.00
2018-11-04T07:11:59.147Z,840.00
2018-11-04T07:12:59.142Z,924.00
2018-11-04T07:13:59.133Z,1012.00
2018-11-04T07:14:59.120Z,1076.00
2018-11-04T07:15:59.118Z,1104.00
2018-11-04T07:16:59.105Z,1124.00
2018-11-04T07:17:59.083Z,1100.00
2018-11-04T07:18:59.082Z,1120.00
2018-11-04T07:19:59.098Z,1096.00
2018-11-04T07:20:59.054Z,992.00
2018-11-04T07:21:59.073Z,928.00
2018-11-04T07:22:59.041Z,872.00
2018-11-04T07:23:59.030Z,792.00
2018-11-04T07:24:59.011Z,740.00
2018-11-04T07:25:59.016Z,724.00
2018-11-04T07:26:58.993Z,708.00
2018-11-04T07:27:58.982Z,720.00
2018-11-04T07:28:58.979Z,696.00
2018-11-04T07:29:58.968Z,756.00
2018-11-04T07:30:58.955Z,932.00
2018-11-04T07:31:58.997Z,1116.00
2018-11-04T07:32:58.944Z,1216.00
2018-11-04T07:33:58.915Z,1204.00
2018-11-04T07:34:58.905Z,1112.00
2018-11-04T07:35:58.903Z,1084.00
2018-11-04T07:36:58.888Z,1140.00
2018-11-04T07:37:58.885Z,1128.00
2018-11-04T07:38:58.890Z,1172.00
2018-11-04T07:39:58.853Z,1260.00
2018-11-04T07:40:58.842Z,1296.00
2018-11-04T07:41:58.849Z,1228.00
2018-11-04T07:42:58.834Z,1268.00
2018-11-04T07:43:58.820Z,1472.00
2018-11-04T07:44:58.805Z,1588.00
2018-11-04T07:45:58.792Z,1496.00
2018-11-04T07:46:58.782Z,1428.00
2018-11-04T07:47:58.787Z,1376.00
2018-11-04T07:48:58.764Z,1328.00
2018-11-04T07:49:58.755Z,1320.00
2018-11-04T07:50:58.756Z,1412.00
2018-11-04T07:51:58.731Z,1496.00
2018-11-04T07:52:58.729Z,1504.00
2018-11-04T07:53:58.724Z,1548.00
2018-11-04T07:54:58.701Z,1652.00
2018-11-04T07:55:58.701Z,1728.00
2018-11-04T07:56:58.743Z,1652.00
2018-11-04T07:57:58.669Z,1568.00
2018-11-04T07:58:58.663Z,1524.00
2018-11-04T07:59:58.659Z,1432.00
2018-11-04T08:00:58.755Z,1452.00
2018-11-04T08:01:58.639Z,1516.00
2018-11-04T08:02:58.626Z,1652.00
2018-11-04T08:03:58.613Z,1780.00
2018-11-04T08:04:58.605Z,1852.00
2018-11-04T08:05:58.599Z,1720.00
2018-11-04T08:06:58.580Z,1632.00
2018-11-04T08:07:58.573Z,1724.00
2018-11-04T08:08:58.609Z,1944.00
2018-11-04T08:09:58.552Z,2220.00
2018-11-04T08:10:58.545Z,2380.00
2018-11-04T08:11:58.539Z,2296.00
2018-11-04T08:12:58.527Z,2272.00
2018-11-04T08:13:58.516Z,2388.00
2018-11-04T08:14:58.499Z,2696.00
2018-11-04T08:15:58.502Z,2756.00
2018-11-04T08:16:58.484Z,2528.00
2018-11-04T08:17:58.473Z,2328.00
2018-11-04T08:18:58.463Z,2220.00
2018-11-04T08:19:58.454Z,2072.00
2018-11-04T08:20:58.449Z,1912.00
2018-11-04T08:21:58.443Z,1716.00
2018-11-04T08:22:58.421Z,1668.00
2018-11-04T08:23:58.417Z,1832.00
2018-11-04T08:24:58.403Z,1916.00
2018-11-04T08:25:58.390Z,1808.00
2018-11-04T08:26:58.386Z,1796.00
2018-11-04T08:27:58.400Z,1956.00
2018-11-04T08:28:58.365Z,2084.00
2018-11-04T08:29:58.351Z,2112.00
2018-11-04T08:30:58.344Z,2144.00
2018-11-04T08:31:58.338Z,2104.00
2018-11-04T08:32:58.322Z,1948.00
2018-11-04T08:33:58.318Z,2024.00
2018-11-04T08:34:58.306Z,2028.00
2018-11-04T08:35:58.303Z,2096.00
2018-11-04T08:36:58.293Z,2228.00
2018-11-04T08:37:58.288Z,2436.00
2018-11-04T08:38:58.265Z,2620.00
2018-11-04T08:39:58.377Z,2760.00
2018-11-04T08:40:58.246Z,2752.00
2018-11-04T08:41:58.235Z,2712.00
2018-11-04T08:42:58.224Z,2656.00
2018-11-04T08:43:59.101Z,2840.00
2018-11-04T08:44:58.203Z,3204.00
2018-11-04T08:45:58.323Z,3228.00
2018-11-04T08:46:58.185Z,3252.00
2018-11-04T08:47:58.181Z,3560.00
2018-11-04T08:48:58.167Z,3684.00
2018-11-04T08:49:58.157Z,3424.00
2018-11-04T08:50:58.148Z,3184.00
2018-11-04T08:51:58.136Z,3100.00
2018-11-04T08:52:58.131Z,3192.00
2018-11-04T08:53:58.118Z,3444.00
2018-11-04T08:54:58.116Z,3816.00
2018-11-04T08:55:58.162Z,3996.00
2018-11-04T08:56:58.089Z,4068.00
2018-11-04T08:57:58.079Z,3888.00
2018-11-04T08:58:58.081Z,3680.00
2018-11-04T08:59:58.086Z,3380.00
2018-11-04T09:00:58.051Z,3308.00
2018-11-04T09:01:58.038Z,3604.00
2018-11-04T09:02:58.050Z,3936.00
2018-11-04T09:03:58.023Z,4112.00
2018-11-04T09:04:58.011Z,4252.00
2018-11-04T09:05:58.000Z,4276.00
2018-11-04T09:06:58.009Z,4492.00
2018-11-04T09:07:57.981Z,4716.00
2018-11-04T09:08:57.989Z,4712.00
2018-11-04T09:09:57.967Z,4356.00
2018-11-04T09:10:57.953Z,4180.00
2018-11-04T09:11:58.598Z,4364.00
2018-11-04T09:12:57.940Z,4640.00
2018-11-04T09:13:57.924Z,4664.00
2018-11-04T09:14:57.917Z,4268.00
2018-11-04T09:15:57.907Z,3992.00
2018-11-04T09:16:57.895Z,4040.00
2018-11-04T09:17:57.882Z,4092.00
2018-11-04T09:18:57.882Z,4080.00
2018-11-04T09:19:57.877Z,4028.00
2018-11-04T09:20:57.858Z,4100.00
2018-11-04T09:21:58.000Z,4216.00
2018-11-04T09:22:57.836Z,4216.00
2018-11-04T09:23:57.835Z,4400.00
2018-11-04T09:24:57.825Z,4780.00
2018-11-04T09:25:57.815Z,5120.00
2018-11-04T09:26:57.800Z,5320.00
2018-11-04T09:27:57.795Z,5056.00
2018-11-04T09:28:57.922Z,4900.00
2018-11-04T09:29:57.774Z,4748.00
2018-11-04T09:30:57.767Z,4896.00
2018-11-04T09:31:57.758Z,5028.00
2018-11-04T09:32:57.745Z,4900.00
2018-11-04T09:33:57.757Z,4652.00
2018-11-04T09:34:57.808Z,4612.00
2018-11-04T09:35:57.778Z,4836.00
2018-11-04T09:36:57.713Z,5128.00
2018-11-04T09:37:57.699Z,4992.00
2018-11-04T09:38:57.741Z,4784.00
2018-11-04T09:39:57.680Z,4772.00
2018-11-04T09:40:57.669Z,5004.00
2018-11-04T09:41:57.673Z,4972.00
2018-11-04T09:42:57.653Z,4756.00
2018-11-04T09:43:57.667Z,4684.00
2018-11-04T09:44:57.646Z,4268.00
2018-11-04T09:45:57.629Z,4248.00
2018-11-04T09:46:57.711Z,4688.00
2018-11-04T09:47:57.614Z,5116.00
2018-11-04T09:48:57.597Z,4988.00
2018-11-04T09:49:57.672Z,4600.00
2018-11-04T09:50:57.600Z,4400.00
2018-11-04T09:51:57.570Z,4280.00
2018-11-04T09:52:57.568Z,4080.00
2018-11-04T09:53:57.567Z,4068.00
2018-11-04T09:54:57.542Z,4008.00
2018-11-04T09:55:57.540Z,4120.00
2018-11-04T09:56:57.533Z,4184.00
2018-11-04T09:57:57.519Z,4500.00
2018-11-04T09:58:57.507Z,5044.00
2018-11-04T09:59:57.500Z,5400.00
2018-11-04T10:00:57.510Z,5212.00
2018-11-04T10:01:57.488Z,5620.00
2018-11-04T10:02:57.481Z,6024.00
2018-11-04T10:03:57.471Z,6180.00
2018-11-04T10:04:57.453Z,6424.00
2018-11-04T10:05:57.449Z,6932.00
2018-11-04T10:06:57.489Z,6948.00
2018-11-04T10:07:57.430Z,6620.00
2018-11-04T10:08:57.441Z,6580.00
2018-11-04T10:09:57.411Z,6728.00
2018-11-04T10:10:57.425Z,6600.00
2018-11-04T10:11:57.396Z,6264.00
2018-11-04T10:12:57.381Z,5824.00
2018-11-04T10:13:57.376Z,5836.00
2018-11-04T10:14:57.369Z,5740.00
2018-11-04T10:15:57.809Z,6012.00
2018-11-04T10:16:58.773Z,6256.00
2018-11-04T10:17:57.335Z,6352.00
2018-11-04T10:18:57.436Z,6284.00
2018-11-04T10:19:57.593Z,5916.00
2018-11-04T10:20:57.708Z,5844.00
2018-11-04T10:21:57.324Z,5888.00
2018-11-04T10:22:57.322Z,5484.00
2018-11-04T10:23:57.311Z,5440.00
2018-11-04T10:24:57.289Z,5884.00
2018-11-04T10:25:57.276Z,6392.00
2018-11-04T10:26:57.291Z,6540.00
2018-11-04T10:27:57.249Z,6284.00
2018-11-04T10:28:57.244Z,5712.00
2018-11-04T10:29:57.262Z,5216.00
2018-11-04T10:30:57.225Z,4928.00
2018-11-04T10:31:57.266Z,4968.00
2018-11-04T10:32:57.255Z,5556.00
2018-11-04T10:33:57.234Z,6240.00
2018-11-04T10:34:57.195Z,6660.00
2018-11-04T10:35:57.210Z,6872.00
2018-11-04T10:36:57.190Z,6776.00
2018-11-04T10:37:57.166Z,6328.00
2018-11-04T10:38:57.188Z,6240.00
2018-11-04T10:39:57.151Z,6308.00
2018-11-04T10:40:57.145Z,6232.00
2018-11-04T10:41:57.136Z,5552.00
2018-11-04T10:42:57.126Z,5000.00
2018-11-04T10:43:57.122Z,5052.00
2018-11-04T10:44:57.111Z,5148.00
2018-11-04T10:45:57.100Z,5164.00
2018-11-04T10:46:57.095Z,4968.00
2018-11-04T10:47:57.089Z,4540.00
2018-11-04T10:48:57.075Z,4328.00
2018-11-04T10:49:57.161Z,4244.00
2018-11-04T10:50:57.073Z,4120.00
2018-11-04T10:51:57.049Z,4156.00
2018-11-04T10:52:57.039Z,4300.00
2018-11-04T10:53:57.035Z,4488.00
2018-11-04T10:54:57.022Z,4560.00
2018-11-04T10:55:57.162Z,4124.00
2018-11-04T10:56:57.041Z,3792.00
2018-11-04T10:57:57.002Z,3476.00
2018-11-04T10:58:56.990Z,3348.00
2018-11-04T10:59:56.984Z,3356.00
2018-11-04T11:00:56.976Z,3616.00
2018-11-04T11:01:56.966Z,4064.00
2018-11-04T11:02:56.958Z,4460.00
2018-11-04T11:03:56.967Z,4636.00
2018-11-04T11:04:57.663Z,4472.00
2018-11-04T11:05:56.937Z,4316.00
2018-11-04T11:06:56.930Z,4080.00
2018-11-04T11:07:56.931Z,4024.00
2018-11-04T11:08:56.911Z,4228.00
2018-11-04T11:09:56.915Z,4580.00
2018-11-04T11:10:56.946Z,4772.00
2018-11-04T11:11:57.646Z,4892.00
2018-11-04T11:12:56.887Z,4848.00
2018-11-04T11:13:56.877Z,4888.00
2018-11-04T11:14:56.863Z,5020.00
2018-11-04T11:15:56.854Z,5296.00
2018-11-04T11:16:56.859Z,5760.00
2018-11-04T11:17:56.837Z,5996.00
2018-11-04T11:18:56.830Z,5988.00
2018-11-04T11:19:56.820Z,5792.00
2018-11-04T11:20:56.814Z,5400.00
2018-11-04T11:21:56.801Z,5260.00
2018-11-04T11:22:56.949Z,5264.00
2018-11-04T11:23:56.794Z,5396.00
2018-11-04T11:24:56.793Z,5428.00
2018-11-04T11:25:56.769Z,5564.00
2018-11-04T11:26:56.777Z,5884.00
2018-11-04T11:27:56.758Z,5704.00
2018-11-04T11:28:56.754Z,5404.00
2018-11-04T11:29:56.751Z,5528.00
2018-11-04T11:30:56.734Z,5796.00
2018-11-04T11:31:56.723Z,5712.00
2018-11-04T11:32:56.711Z,5240.00
2018-11-04T11:33:56.705Z,5008.00
2018-11-04T11:34:56.698Z,4876.00
2018-11-04T11:35:56.686Z,4760.00
2018-11-04T11:36:56.689Z,4796.00
2018-11-04T11:37:56.729Z,4984.00
2018-11-04T11:38:56.674Z,5296.00
2018-11-04T11:39:56.653Z,5308.00
2018-11-04T11:40:56.650Z,5084.00
2018-11-04T11:41:56.639Z,4812.00
2018-11-04T11:42:56.630Z,4680.00
2018-11-04T11:43:56.625Z,4472.00
2018-11-04T11:44:56.695Z,4336.00
2018-11-04T11:45:56.650Z,4448.00
2018-11-04T11:46:56.605Z,4844.00
2018-11-04T11:47:56.596Z,5188.00
2018-11-04T11:48:56.866Z,5408.00
2018-11-04T11:49:56.598Z,5712.00
2018-11-04T11:50:56.759Z,6012.00
2018-11-04T11:51:56.563Z,5724.00
2018-11-04T11:52:56.552Z,5404.00
2018-11-04T11:53:56.549Z,5236.00
2018-11-04T11:54:56.538Z,5180.00
2018-11-04T11:55:56.530Z,5084.00
2018-11-04T11:56:56.519Z,5020.00
2018-11-04T11:57:56.516Z,5016.00
2018-11-04T11:58:56.506Z,5328.00
2018-11-04T11:59:56.494Z,5572.00
2018-11-04T12:00:56.493Z,5740.00
2018-11-04T12:01:56.481Z,5744.00
2018-11-04T12:02:56.473Z,5424.00
2018-11-04T12:03:56.466Z,5168.00
2018-11-04T12:04:56.471Z,5000.00
2018-11-04T12:05:56.452Z,4868.00
2018-11-04T12:06:56.447Z,4424.00
2018-11-04T12:07:56.444Z,4072.00
2018-11-04T12:08:56.425Z,4080.00
2018-11-04T12:09:56.418Z,4288.00
2018-11-04T12:10:56.410Z,4716.00
2018-11-04T12:11:56.411Z,4968.00
2018-11-04T12:12:56.411Z,5344.00
2018-11-04T12:13:56.389Z,5772.00
2018-11-04T12:14:56.383Z,5484.00
2018-11-04T12:15:56.387Z,5156.00
2018-11-04T12:16:56.365Z,5152.00
2018-11-04T12:17:56.451Z,5356.00
2018-11-04T12:18:56.390Z,5524.00
2018-11-04T12:19:56.352Z,5556.00
2018-11-04T12:20:56.342Z,5344.00
2018-11-04T12:21:56.327Z,5460.00
2018-11-04T12:22:56.318Z,5504.00
2018-11-04T12:23:56.310Z,5296.00
2018-11-04T12:24:56.305Z,4884.00
2018-11-04T12:25:56.297Z,4784.00
2018-11-04T12:26:56.301Z,4748.00
2018-11-04T12:27:56.280Z,4900.00
2018-11-04T12:28:56.272Z,5128.00
2018-11-04T12:29:56.272Z,5020.00
2018-11-04T12:30:56.255Z,4896.00
2018-11-04T12:31:56.251Z,5116.00
2018-11-04T12:32:56.246Z,5176.00
2018-11-04T12:33:56.237Z,5240.00
2018-11-04T12:34:56.241Z,5272.00
2018-11-04T12:35:56.250Z,5316.00
2018-11-04T12:36:56.236Z,5392.00
2018-11-04T12:37:56.202Z,5800.00
2018-11-04T12:38:56.207Z,5912.00
2018-11-04T12:39:56.190Z,5876.00
2018-11-04T12:40:56.185Z,5792.00
2018-11-04T12:41:56.197Z,5800.00